Time;durP1;ratioP1;P1;durP2;ratioP2;P2;SDS_P1;SDS_P2;PMS_P1;PMS_P2;Temp;Humidity;BMP_temperature;BMP_pressure;BME280_temperature;BME280_humidity;BME280_pressure;Samples;Min_cycle;Max_cycle;Signal;HPM_P1;HPM_P2
2023/09/19 00:00:30;;;;;;;6.22;1.55;;;17.30;74.30;;;;;;5061442;28;20024;-70
2023/09/19 00:02:59;;;;;;;8.30;1.70;;;17.30;74.30;;;;;;5062530;28;20391;-70
2023/09/19 00:05:29;;;;;;;6.75;1.42;;;17.30;74.40;;;;;;5063487;28;20066;-70
2023/09/19 00:07:58;;;;;;;6.63;1.60;;;17.20;74.10;;;;;;5062097;28;20055;-70
2023/09/19 00:10:31;;;;;;;6.00;1.95;;;17.20;74.30;;;;;;5045810;28;20032;-70
2023/09/19 00:13:05;;;;;;;7.77;1.97;;;17.10;74.30;;;;;;5062983;28;20053;-70
2023/09/19 00:15:36;;;;;;;3.88;1.38;;;17.10;74.20;;;;;;5047218;28;20286;-70
2023/09/19 00:18:02;;;;;;;8.18;1.90;;;17.10;74.30;;;;;;5061779;28;20045;-70
2023/09/19 00:20:29;;;;;;;9.93;1.50;;;17.00;74.40;;;;;;5062477;28;20039;-70
2023/09/19 00:22:55;;;;;;;5.38;1.70;;;17.00;74.50;;;;;;5062747;28;20047;-69
2023/09/19 00:25:21;;;;;;;6.88;1.77;;;17.00;74.60;;;;;;5062576;28;20461;-70
2023/09/19 00:27:51;;;;;;;6.75;1.52;;;16.90;75.00;;;;;;5062855;28;20546;-69
2023/09/19 00:30:20;;;;;;;9.00;2.33;;;16.90;74.80;;;;;;5061728;28;20101;-70
2023/09/19 00:32:47;;;;;;;8.88;1.73;;;16.90;74.90;;;;;;5063724;28;20138;-70
2023/09/19 00:35:16;;;;;;;5.82;1.73;;;16.90;74.90;;;;;;5020769;28;20049;-70
2023/09/19 00:37:43;;;;;;;6.32;1.63;;;16.90;74.80;;;;;;5049248;28;20041;-70
2023/09/19 00:40:12;;;;;;;6.20;1.90;;;16.80;74.80;;;;;;5051088;28;20552;-70
2023/09/19 00:42:40;;;;;;;6.28;1.85;;;16.80;75.00;;;;;;5051940;28;20053;-70
2023/09/19 00:45:10;;;;;;;7.63;2.13;;;16.80;75.10;;;;;;5068840;28;20479;-70
2023/09/19 00:47:37;;;;;;;5.32;1.90;;;16.80;75.30;;;;;;5069022;28;20029;-70
2023/09/19 00:50:07;;;;;;;6.70;2.20;;;16.80;75.30;;;;;;5068785;28;20385;-70
2023/09/19 00:52:36;;;;;;;5.18;1.70;;;16.80;75.30;;;;;;5052373;28;20106;-70
2023/09/19 00:55:03;;;;;;;5.30;1.60;;;16.70;75.30;;;;;;5052311;28;20127;-70
2023/09/19 00:57:32;;;;;;;6.60;1.52;;;16.70;75.30;;;;;;5051923;28;20485;-70
2023/09/19 00:59:59;;;;;;;6.93;1.90;;;16.70;75.40;;;;;;5052395;28;20124;-70
2023/09/19 01:02:28;;;;;;;7.25;2.10;;;16.70;75.50;;;;;;5068595;28;20037;-70
2023/09/19 01:04:54;;;;;;;8.43;2.15;;;16.70;75.30;;;;;;5051896;28;20041;-70
2023/09/19 01:07:22;;;;;;;7.43;2.30;;;16.70;75.10;;;;;;5035201;28;20051;-70
2023/09/19 01:09:48;;;;;;;6.60;1.98;;;16.60;75.10;;;;;;5068040;28;20041;-69
2023/09/19 01:12:23;;;;;;;6.32;1.90;;;16.60;75.10;;;;;;5051481;28;20041;-70
2023/09/19 01:15:04;;;;;;;6.35;1.52;;;16.60;75.10;;;;;;5068197;28;20044;-70
2023/09/19 01:17:36;;;;;;;5.43;1.88;;;16.60;75.00;;;;;;5051905;28;20102;-70
2023/09/19 01:20:23;;;;;;;4.88;1.85;;;16.60;75.10;;;;;;5051861;28;20051;-70
2023/09/19 01:23:02;;;;;;;4.75;1.88;;;16.50;75.00;;;;;;5051802;28;20056;-70
2023/09/19 01:25:43;;;;;;;5.13;1.48;;;16.50;74.90;;;;;;5051944;28;20037;-70
2023/09/19 01:28:11;;;;;;;6.72;1.60;;;16.50;74.80;;;;;;5041874;28;20037;-70
2023/09/19 01:30:43;;;;;;;6.80;1.92;;;16.50;74.50;;;;;;5051832;28;20068;-72
2023/09/19 01:33:10;;;;;;;4.95;1.65;;;16.40;74.20;;;;;;5051622;28;20052;-72
2023/09/19 01:35:38;;;;;;;4.43;1.30;;;16.40;74.00;;;;;;5051532;28;20119;-70
2023/09/19 01:38:09;;;;;;;5.88;2.05;;;16.40;74.10;;;;;;5051788;28;20424;-71
2023/09/19 01:40:47;;;;;;;8.75;1.85;;;16.40;74.40;;;;;;5051585;28;20048;-71
2023/09/19 01:43:37;;;;;;;4.00;1.50;;;16.40;74.50;;;;;;5051121;28;20053;-71
2023/09/19 01:46:14;;;;;;;5.05;1.42;;;16.40;74.20;;;;;;5068475;28;20037;-71
2023/09/19 01:49:03;;;;;;;5.45;1.50;;;16.30;74.40;;;;;;5051627;28;20040;-71
2023/09/19 01:51:46;;;;;;;6.03;1.77;;;16.30;74.30;;;;;;5034957;28;20041;-71
2023/09/19 01:54:16;;;;;;;4.50;1.75;;;16.30;74.20;;;;;;5057754;28;20059;-69
2023/09/19 01:57:14;;;;;;;4.78;1.50;;;16.30;74.40;;;;;;5069404;28;20051;-70
2023/09/19 01:59:52;;;;;;;5.57;1.65;;;16.30;74.40;;;;;;5068154;28;20439;-70
2023/09/19 02:02:22;;;;;;;9.73;1.73;;;16.20;74.50;;;;;;5051454;28;20049;-69
2023/09/19 02:04:49;;;;;;;7.82;1.83;;;16.20;74.40;;;;;;5062801;28;20063;-69
2023/09/19 02:07:15;;;;;;;5.90;1.85;;;16.20;74.30;;;;;;5041576;28;20029;-70
2023/09/19 02:09:42;;;;;;;6.15;1.75;;;16.10;74.20;;;;;;5051481;28;20052;-70
2023/09/19 02:12:09;;;;;;;7.40;1.75;;;16.10;74.40;;;;;;5051034;28;20591;-69
2023/09/19 02:14:36;;;;;;;7.28;1.40;;;16.10;74.50;;;;;;5050604;28;20036;-70
2023/09/19 02:17:06;;;;;;;6.22;1.73;;;16.00;74.40;;;;;;5051059;28;20044;-70
2023/09/19 02:19:33;;;;;;;9.75;2.50;;;16.00;74.40;;;;;;5051212;28;20132;-73
2023/09/19 02:22:00;;;;;;;8.70;2.40;;;15.90;74.30;;;;;;5051088;28;20045;-72
2023/09/19 02:24:26;;;;;;;8.75;2.10;;;15.90;74.50;;;;;;5058821;28;20089;-70
2023/09/19 02:26:52;;;;;;;6.50;1.50;;;15.90;74.70;;;;;;5060811;28;20442;-69
2023/09/19 02:29:18;;;;;;;4.40;1.95;;;15.90;74.90;;;;;;5067657;28;20037;-70
2023/09/19 02:31:46;;;;;;;5.93;1.67;;;15.80;75.20;;;;;;5050831;28;20424;-70
2023/09/19 02:34:11;;;;;;;4.35;1.60;;;15.80;75.40;;;;;;5067082;28;20048;-70
2023/09/19 02:36:37;;;;;;;7.85;1.80;;;15.80;75.60;;;;;;5052354;28;20443;-69
2023/09/19 02:39:05;;;;;;;7.65;2.08;;;15.80;75.70;;;;;;5067638;28;20369;-69
2023/09/19 02:41:32;;;;;;;5.95;1.60;;;15.70;75.80;;;;;;5071197;28;20496;-69
2023/09/19 02:43:59;;;;;;;5.80;1.98;;;15.70;75.90;;;;;;5071112;28;20041;-69
2023/09/19 02:46:24;;;;;;;5.80;2.03;;;15.70;76.00;;;;;;5071526;28;20041;-69
2023/09/19 02:48:50;;;;;;;6.88;1.92;;;15.70;76.10;;;;;;5071204;28;20044;-69
2023/09/19 02:51:16;;;;;;;6.05;2.28;;;15.60;76.20;;;;;;5054569;28;20531;-69
2023/09/19 02:53:42;;;;;;;4.28;1.63;;;15.60;76.30;;;;;;5020472;28;20045;-70
2023/09/19 02:56:09;;;;;;;6.25;1.50;;;15.60;76.50;;;;;;5041654;28;20094;-70
2023/09/19 02:58:35;;;;;;;7.20;1.98;;;15.60;76.70;;;;;;5054570;28;20067;-70
2023/09/19 03:01:08;;;;;;;10.65;1.90;;;15.60;76.80;;;;;;5037658;28;20049;-70
2023/09/19 03:03:34;;;;;;;6.30;1.80;;;15.60;76.80;;;;;;5071171;28;20060;-70
2023/09/19 03:06:04;;;;;;;7.63;2.58;;;15.50;76.80;;;;;;5070845;28;20041;-70
2023/09/19 03:08:30;;;;;;;6.05;2.25;;;15.50;76.90;;;;;;5054379;28;20072;-70
2023/09/19 03:10:56;;;;;;;7.38;2.03;;;15.50;77.00;;;;;;5054121;28;20073;-70
2023/09/19 03:13:21;;;;;;;3.80;1.55;;;15.50;77.00;;;;;;5070971;28;20037;-70
2023/09/19 03:15:49;;;;;;;4.72;1.58;;;15.50;77.00;;;;;;5037020;28;20033;-70
2023/09/19 03:18:15;;;;;;;5.90;1.73;;;15.60;77.10;;;;;;5070711;28;20557;-70
2023/09/19 03:20:41;;;;;;;10.75;2.28;;;15.60;77.10;;;;;;5054515;28;20041;-70
2023/09/19 03:23:08;;;;;;;3.25;1.30;;;15.60;77.00;;;;;;5070669;28;20374;-70
2023/09/19 03:25:36;;;;;;;7.25;2.05;;;15.50;77.00;;;;;;5069735;28;20048;-70
2023/09/19 03:28:07;;;;;;;11.10;2.03;;;15.50;77.00;;;;;;5040965;28;20133;-70
2023/09/19 03:30:33;;;;;;;9.02;2.42;;;15.50;76.80;;;;;;5060143;28;20045;-70
2023/09/19 03:32:59;;;;;;;4.13;1.60;;;15.50;76.80;;;;;;5036818;28;20056;-69
2023/09/19 03:35:25;;;;;;;6.55;2.03;;;15.50;77.00;;;;;;5070591;28;20036;-69
2023/09/19 03:37:52;;;;;;;8.43;2.35;;;15.50;76.80;;;;;;5053732;28;20480;-70
2023/09/19 03:40:20;;;;;;;6.05;1.40;;;15.50;76.80;;;;;;5053751;28;20056;-70
2023/09/19 03:42:46;;;;;;;7.15;2.15;;;15.50;76.80;;;;;;5070194;28;20531;-70
2023/09/19 03:45:12;;;;;;;7.10;2.38;;;15.50;76.70;;;;;;5070021;28;20115;-69
2023/09/19 03:47:39;;;;;;;6.03;2.22;;;15.50;76.60;;;;;;5054034;28;20415;-70
2023/09/19 03:50:07;;;;;;;7.78;1.95;;;15.50;76.70;;;;;;5053236;28;20049;-70
2023/09/19 03:52:32;;;;;;;6.78;2.10;;;15.50;76.70;;;;;;5042701;28;20040;-70
2023/09/19 03:54:58;;;;;;;4.20;1.67;;;15.50;76.60;;;;;;5044003;28;20055;-70
2023/09/19 03:57:24;;;;;;;9.43;2.15;;;15.50;76.60;;;;;;5053629;28;20048;-69
2023/09/19 03:59:52;;;;;;;8.48;1.50;;;15.50;76.50;;;;;;5036820;28;20435;-70
2023/09/19 04:02:24;;;;;;;6.75;1.60;;;15.50;76.50;;;;;;5053169;28;20045;-69
2023/09/19 04:04:53;;;;;;;5.25;2.08;;;15.40;76.60;;;;;;5054515;28;20038;-69
2023/09/19 04:07:22;;;;;;;7.47;1.63;;;15.40;76.70;;;;;;5053167;28;20036;-70
2023/09/19 04:09:48;;;;;;;5.90;2.10;;;15.40;76.90;;;;;;5053817;28;20087;-69
2023/09/19 04:12:16;;;;;;;6.00;1.98;;;15.40;76.90;;;;;;5042123;28;20045;-69
2023/09/19 04:14:42;;;;;;;7.55;1.90;;;15.40;77.10;;;;;;5069596;28;20037;-70
2023/09/19 04:17:09;;;;;;;5.32;1.63;;;15.40;77.30;;;;;;5052705;28;20099;-70
2023/09/19 04:19:35;;;;;;;6.93;2.03;;;15.40;77.70;;;;;;5053111;28;20052;-69
2023/09/19 04:22:01;;;;;;;6.57;1.77;;;15.40;77.40;;;;;;5057617;28;20418;-69
2023/09/19 04:24:26;;;;;;;4.20;1.92;;;15.40;77.50;;;;;;5052744;28;20037;-70
2023/09/19 04:26:52;;;;;;;7.00;1.55;;;15.40;77.50;;;;;;5053225;28;20051;-69
2023/09/19 04:29:19;;;;;;;6.65;2.05;;;15.40;77.60;;;;;;5052945;28;20047;-70
2023/09/19 04:31:45;;;;;;;11.52;2.42;;;15.40;77.80;;;;;;5062091;28;20051;-69
2023/09/19 04:34:17;;;;;;;4.63;1.73;;;15.50;77.90;;;;;;5042918;28;20090;-70
2023/09/19 04:36:43;;;;;;;4.63;1.55;;;15.50;78.00;;;;;;5052824;28;20045;-70
2023/09/19 04:39:12;;;;;;;6.68;2.03;;;15.50;78.00;;;;;;5053007;28;20103;-70
2023/09/19 04:41:40;;;;;;;4.95;1.95;;;15.60;78.10;;;;;;5051808;28;20044;-70
2023/09/19 04:44:07;;;;;;;3.53;1.50;;;15.60;78.10;;;;;;5052847;28;20408;-70
2023/09/19 04:46:33;;;;;;;6.75;1.85;;;15.60;78.10;;;;;;5052676;28;20033;-69
2023/09/19 04:48:59;;;;;;;7.35;1.95;;;15.60;78.00;;;;;;5052593;28;20079;-69
2023/09/19 04:51:26;;;;;;;8.68;2.33;;;15.60;77.80;;;;;;5052462;28;20056;-69
2023/09/19 04:53:52;;;;;;;9.30;2.45;;;15.70;77.80;;;;;;5069370;28;20527;-70
2023/09/19 04:56:19;;;;;;;8.85;2.30;;;15.70;77.70;;;;;;5052236;28;20068;-69
2023/09/19 04:58:44;;;;;;;10.00;2.40;;;15.70;77.60;;;;;;5056005;28;20071;-70
2023/09/19 05:01:12;;;;;;;9.25;1.88;;;15.70;77.50;;;;;;5036017;28;20481;-70
2023/09/19 05:03:38;;;;;;;10.75;2.50;;;15.70;77.60;;;;;;5068105;28;20049;-70
2023/09/19 05:06:05;;;;;;;12.65;2.70;;;15.70;77.50;;;;;;5068889;28;20120;-69
2023/09/19 05:08:30;;;;;;;7.93;2.45;;;15.70;77.40;;;;;;5051974;28;20119;-70
2023/09/19 05:10:56;;;;;;;9.23;2.15;;;15.70;77.40;;;;;;5055091;28;20124;-70
2023/09/19 05:13:25;;;;;;;9.43;2.40;;;15.70;77.40;;;;;;5036219;28;20068;-70
2023/09/19 05:15:51;;;;;;;9.02;2.53;;;15.70;77.40;;;;;;5051759;28;20110;-69
2023/09/19 05:18:16;;;;;;;7.18;1.83;;;15.70;77.80;;;;;;5066984;28;20041;-70
2023/09/19 05:20:43;;;;;;;9.05;1.80;;;15.70;77.40;;;;;;5052064;28;20047;-68
2023/09/19 05:23:09;;;;;;;8.38;2.28;;;15.70;77.40;;;;;;5051421;28;20036;-68
2023/09/19 05:25:39;;;;;;;5.85;2.00;;;15.80;77.40;;;;;;5052178;28;20481;-70
2023/09/19 05:28:10;;;;;;;6.78;2.25;;;15.80;77.40;;;;;;5034992;28;20037;-70
2023/09/19 05:30:36;;;;;;;5.43;1.85;;;15.80;77.30;;;;;;5067858;28;20081;-69
2023/09/19 05:33:04;;;;;;;7.28;2.22;;;15.80;77.20;;;;;;5051310;28;20507;-69
2023/09/19 05:35:30;;;;;;;9.10;2.20;;;15.80;77.20;;;;;;5051987;28;20391;-70
2023/09/19 05:37:57;;;;;;;5.78;1.70;;;15.80;77.00;;;;;;5034333;28;20381;-70
2023/09/19 05:40:24;;;;;;;7.72;2.13;;;15.80;77.00;;;;;;5018707;28;20056;-68
2023/09/19 05:42:50;;;;;;;8.82;1.98;;;15.90;76.90;;;;;;5045087;28;20415;-70
2023/09/19 05:45:22;;;;;;;7.25;2.30;;;15.80;76.70;;;;;;5051541;28;20045;-70
2023/09/19 05:47:49;;;;;;;6.40;1.80;;;15.80;76.50;;;;;;5051002;28;20040;-70
2023/09/19 05:50:16;;;;;;;6.95;1.73;;;15.80;76.50;;;;;;5051576;28;20064;-70
2023/09/19 05:52:44;;;;;;;7.53;2.15;;;15.80;76.40;;;;;;5051769;28;20140;-70
2023/09/19 05:55:10;;;;;;;8.57;2.50;;;15.80;76.50;;;;;;5034944;28;20127;-70
2023/09/19 05:57:39;;;;;;;10.65;2.40;;;15.80;76.50;;;;;;5051818;28;20496;-70
2023/09/19 06:00:10;;;;;;;7.45;1.90;;;15.80;76.50;;;;;;5051790;28;20045;-70
2023/09/19 06:02:37;;;;;;;6.03;2.35;;;15.80;76.50;;;;;;5051290;28;20045;-70
2023/09/19 06:05:06;;;;;;;10.57;3.10;;;15.80;76.60;;;;;;5051037;28;20119;-70
2023/09/19 06:07:37;;;;;;;11.45;3.30;;;15.80;76.70;;;;;;5051673;28;20443;-70
2023/09/19 06:10:07;;;;;;;10.43;2.92;;;15.80;76.80;;;;;;5035595;28;20543;-70
2023/09/19 06:12:35;;;;;;;10.48;2.10;;;15.80;76.90;;;;;;5035079;28;20094;-70
2023/09/19 06:15:00;;;;;;;9.35;2.13;;;15.80;76.90;;;;;;5054330;28;20045;-70
2023/09/19 06:17:28;;;;;;;6.47;2.20;;;15.90;77.00;;;;;;5055525;28;20090;-70
2023/09/19 06:19:55;;;;;;;8.13;2.20;;;15.90;77.10;;;;;;5039088;28;20084;-70
2023/09/19 06:22:23;;;;;;;11.02;2.60;;;15.90;77.30;;;;;;5038802;28;20049;-70
2023/09/19 06:24:50;;;;;;;10.50;2.83;;;15.90;77.10;;;;;;5055610;28;20043;-70
2023/09/19 06:27:15;;;;;;;11.73;2.90;;;15.90;76.80;;;;;;5055452;28;20036;-70
2023/09/19 06:29:41;;;;;;;12.25;2.83;;;15.90;76.60;;;;;;5055218;28;20539;-69
2023/09/19 06:32:10;;;;;;;9.60;2.75;;;15.90;76.40;;;;;;5055376;28;20041;-71
2023/09/19 06:34:38;;;;;;;10.27;2.30;;;15.90;76.30;;;;;;5055107;28;20067;-70
2023/09/19 06:37:06;;;;;;;7.90;2.30;;;15.90;76.10;;;;;;5055039;28;20053;-70
2023/09/19 06:39:31;;;;;;;7.97;2.50;;;15.90;76.10;;;;;;5054998;28;20501;-73
2023/09/19 06:41:58;;;;;;;8.05;1.92;;;15.90;76.20;;;;;;5071297;28;20045;-73
2023/09/19 06:44:24;;;;;;;11.38;2.65;;;15.90;76.10;;;;;;5071457;28;20060;-73
2023/09/19 06:46:51;;;;;;;10.07;2.90;;;15.90;76.20;;;;;;5054847;28;20029;-73
2023/09/19 06:49:17;;;;;;;9.40;2.20;;;15.90;76.10;;;;;;5071576;28;20095;-73
2023/09/19 06:51:43;;;;;;;11.15;2.03;;;15.90;75.80;;;;;;5054767;28;20136;-73
2023/09/19 06:54:10;;;;;;;15.48;3.20;;;15.90;75.90;;;;;;5054655;28;20048;-73
2023/09/19 06:56:35;;;;;;;9.13;2.40;;;15.90;75.90;;;;;;5037812;28;20044;-73
2023/09/19 06:59:02;;;;;;;11.55;2.15;;;15.90;75.90;;;;;;5038353;28;20059;-73
2023/09/19 07:01:28;;;;;;;9.00;2.72;;;15.90;76.00;;;;;;5054530;28;20044;-73
2023/09/19 07:03:54;;;;;;;7.25;2.30;;;15.90;75.90;;;;;;5037972;28;20102;-72
2023/09/19 07:06:20;;;;;;;7.13;2.35;;;15.90;75.90;;;;;;5021665;28;20109;-73
2023/09/19 07:08:46;;;;;;;14.05;2.97;;;15.90;76.00;;;;;;5054510;28;20041;-72
2023/09/19 07:11:12;;;;;;;8.38;2.55;;;15.90;76.40;;;;;;5054805;28;20039;-72
2023/09/19 07:13:39;;;;;;;10.15;2.30;;;15.90;76.00;;;;;;5054038;28;20076;-73
2023/09/19 07:16:04;;;;;;;9.82;2.97;;;15.90;75.80;;;;;;5054330;28;20041;-72
2023/09/19 07:18:31;;;;;;;9.00;2.50;;;15.90;75.80;;;;;;5054315;28;20087;-73
2023/09/19 07:21:01;;;;;;;9.25;2.53;;;15.90;75.90;;;;;;5054213;28;20166;-73
2023/09/19 07:23:26;;;;;;;13.20;3.15;;;15.90;76.00;;;;;;5053950;28;20045;-73
2023/09/19 07:25:56;;;;;;;8.13;2.40;;;15.90;75.90;;;;;;5037099;28;20044;-73
2023/09/19 07:28:22;;;;;;;8.63;2.33;;;15.90;76.00;;;;;;5054174;28;20045;-72
2023/09/19 07:30:48;;;;;;;8.35;3.03;;;15.90;76.10;;;;;;5053752;28;20045;-73
2023/09/19 07:33:14;;;;;;;8.77;2.35;;;15.90;76.10;;;;;;5070651;28;20098;-72
2023/09/19 07:35:40;;;;;;;11.07;2.83;;;16.00;76.10;;;;;;5070960;28;20040;-72
2023/09/19 07:38:07;;;;;;;13.13;2.88;;;16.00;76.10;;;;;;5070591;28;20408;-72
2023/09/19 07:40:33;;;;;;;9.00;2.67;;;15.90;76.20;;;;;;5053705;28;20037;-72
2023/09/19 07:43:02;;;;;;;8.90;2.25;;;16.00;76.40;;;;;;5037113;28;20053;-72
2023/09/19 07:45:29;;;;;;;10.32;2.80;;;16.00;76.70;;;;;;5037510;28;20041;-72
2023/09/19 07:47:55;;;;;;;10.48;3.15;;;16.00;76.90;;;;;;5052923;28;20041;-72
2023/09/19 07:50:21;;;;;;;6.57;2.25;;;16.00;77.00;;;;;;5053685;28;20037;-73
2023/09/19 07:52:50;;;;;;;9.93;2.67;;;16.00;76.90;;;;;;5037298;28;20045;-73
2023/09/19 07:55:17;;;;;;;9.30;2.75;;;16.10;76.90;;;;;;5053295;28;20090;-73
2023/09/19 07:57:43;;;;;;;11.73;3.40;;;16.10;76.80;;;;;;5053909;28;20389;-73
2023/09/19 08:00:10;;;;;;;13.25;2.97;;;16.20;76.60;;;;;;5053640;28;20388;-72
2023/09/19 08:02:39;;;;;;;10.93;2.83;;;16.20;76.60;;;;;;5052779;28;20041;-69
2023/09/19 08:05:06;;;;;;;10.30;3.00;;;16.30;76.50;;;;;;5041234;28;20046;-70
2023/09/19 08:07:36;;;;;;;12.88;3.13;;;16.30;76.60;;;;;;5050238;28;20041;-70
2023/09/19 08:10:11;;;;;;;8.95;2.85;;;16.40;76.40;;;;;;5016803;28;20042;-70
2023/09/19 08:12:37;;;;;;;9.23;2.40;;;16.40;76.10;;;;;;5055609;28;20051;-71
2023/09/19 08:15:03;;;;;;;12.13;2.85;;;16.50;75.70;;;;;;5036897;28;20040;-71
2023/09/19 08:17:33;;;;;;;10.55;2.47;;;16.60;75.80;;;;;;5053123;28;20047;-71
2023/09/19 08:20:00;;;;;;;9.15;2.22;;;16.60;75.90;;;;;;5052842;28;20040;-70
2023/09/19 08:22:26;;;;;;;8.43;3.17;;;16.70;76.10;;;;;;5069657;28;20052;-70
2023/09/19 08:24:51;;;;;;;13.35;3.50;;;16.80;76.40;;;;;;5036503;28;20037;-70
2023/09/19 08:27:19;;;;;;;11.88;3.55;;;16.90;75.90;;;;;;5069282;28;20040;-69
2023/09/19 08:29:46;;;;;;;10.45;3.45;;;17.00;75.50;;;;;;5052953;28;20052;-70
2023/09/19 08:32:12;;;;;;;11.75;3.25;;;17.00;75.10;;;;;;5053127;28;20076;-70
2023/09/19 08:34:38;;;;;;;9.57;2.55;;;17.20;75.00;;;;;;5052759;28;20045;-70
2023/09/19 08:37:03;;;;;;;8.30;2.33;;;17.30;75.10;;;;;;5052706;28;20037;-70
2023/09/19 08:39:33;;;;;;;9.00;3.28;;;17.40;74.60;;;;;;5052608;28;20515;-70
2023/09/19 08:41:59;;;;;;;11.23;2.80;;;17.60;74.60;;;;;;5069026;28;20072;-70
2023/09/19 08:44:26;;;;;;;8.10;2.90;;;17.70;74.10;;;;;;5052527;28;20041;-69
2023/09/19 08:46:55;;;;;;;15.85;3.65;;;17.80;73.70;;;;;;5052448;28;20041;-70
2023/09/19 08:49:58;;;;;;;10.10;3.42;;;18.00;73.00;;;;;;5052583;28;20043;-70
2023/09/19 08:52:35;;;;;;;9.80;3.25;;;18.10;72.30;;;;;;5046032;28;20060;-70
2023/09/19 08:55:04;;;;;;;11.27;3.13;;;18.20;72.00;;;;;;5052231;28;20537;-70
2023/09/19 08:57:35;;;;;;;12.95;3.33;;;18.30;71.30;;;;;;5052378;28;20052;-71
2023/09/19 09:00:05;;;;;;;10.32;3.13;;;18.40;70.60;;;;;;5052066;28;20504;-70
2023/09/19 09:02:33;;;;;;;12.40;3.65;;;18.50;70.70;;;;;;5052229;28;20124;-71
2023/09/19 09:05:00;;;;;;;9.73;2.78;;;18.60;70.20;;;;;;5052521;28;20120;-70
2023/09/19 09:07:28;;;;;;;9.63;3.78;;;18.70;69.90;;;;;;5052226;28;20075;-70
2023/09/19 09:09:54;;;;;;;10.50;3.85;;;18.80;69.70;;;;;;5052437;28;20377;-70
2023/09/19 09:12:20;;;;;;;8.85;3.47;;;18.90;69.50;;;;;;5068603;28;20052;-70
2023/09/19 09:14:48;;;;;;;10.23;2.92;;;19.00;69.10;;;;;;5035600;28;20055;-70
2023/09/19 09:17:15;;;;;;;10.63;2.70;;;19.10;68.70;;;;;;5068585;28;20119;-71
2023/09/19 09:19:41;;;;;;;11.27;2.65;;;19.20;68.50;;;;;;5051965;28;20053;-71
2023/09/19 09:22:11;;;;;;;9.50;2.78;;;19.20;68.20;;;;;;5050420;28;20052;-71
2023/09/19 09:24:39;;;;;;;11.30;3.42;;;19.30;67.60;;;;;;5050960;28;20156;-71
2023/09/19 09:27:10;;;;;;;10.50;2.75;;;19.30;67.20;;;;;;5035200;28;20103;-71
2023/09/19 09:29:49;;;;;;;10.65;3.10;;;19.40;66.60;;;;;;5051428;28;20036;-70
2023/09/19 09:32:22;;;;;;;11.05;3.35;;;19.40;66.70;;;;;;5052391;28;20041;-71
2023/09/19 09:34:56;;;;;;;9.57;2.73;;;19.50;66.00;;;;;;5051907;28;20444;-70
2023/09/19 09:37:22;;;;;;;;;;;19.50;66.40;;;;;;5036652;28;20088;-70
2023/09/19 09:39:53;;;;;;;11.35;3.78;;;19.60;67.20;;;;;;5051614;28;19920;-69
2023/09/19 09:42:38;;;;;;;9.77;2.70;;;19.60;65.70;;;;;;5051580;28;20051;-70
2023/09/19 09:48:13;;;;;;;14.75;2.90;;;19.70;65.20;;;;;;5051381;28;20037;-70
2023/09/19 09:50:56;;;;;;;9.48;2.85;;;19.70;64.80;;;;;;5051311;28;20124;-70
2023/09/19 09:53:31;;;;;;;8.75;2.75;;;19.70;65.40;;;;;;5051732;28;20500;-70
2023/09/19 09:56:05;;;;;;;11.95;3.33;;;19.80;65.70;;;;;;5051758;28;20037;-70
2023/09/19 09:58:35;;;;;;;;;;;19.90;65.40;;;;;;5052166;28;20127;-70
2023/09/19 10:01:08;;;;;;;11.88;3.15;;;19.90;65.70;;;;;;5051444;28;20334;-70
2023/09/19 10:03:44;;;;;;;8.60;2.70;;;20.00;65.40;;;;;;5051524;28;20132;-70
2023/09/19 10:06:47;;;;;;;11.20;3.22;;;20.00;65.00;;;;;;5051489;28;20480;-70
2023/09/19 10:09:11;;;;;;;11.10;3.38;;;20.10;64.40;;;;;;5049497;28;20086;-70
2023/09/19 10:12:08;;;;;;;9.45;3.03;;;20.20;64.20;;;;;;5051272;28;20080;-70
2023/09/19 10:14:38;;;;;;;13.00;3.20;;;20.30;64.00;;;;;;5065132;28;20045;-70
2023/09/19 10:17:10;;;;;;;12.65;3.25;;;20.40;63.80;;;;;;5034160;28;20041;-70
2023/09/19 10:19:57;;;;;;;10.65;2.65;;;20.40;62.60;;;;;;5050192;28;20041;-71
2023/09/19 10:22:24;;;;;;;12.23;2.92;;;20.50;61.00;;;;;;5051018;28;20120;-71
2023/09/19 10:24:53;;;;;;;13.32;4.03;;;20.50;60.80;;;;;;5018497;28;20037;-70
2023/09/19 10:27:26;;;;;;;11.57;3.20;;;20.40;60.40;;;;;;5034771;28;20041;-71
2023/09/19 10:29:57;;;;;;;10.35;2.60;;;20.40;60.30;;;;;;5051027;28;20488;-70
2023/09/19 10:32:23;;;;;;;10.88;3.20;;;20.30;60.80;;;;;;5050910;28;20106;-70
2023/09/19 10:34:49;;;;;;;11.15;2.58;;;20.30;60.90;;;;;;5051153;28;20120;-70
2023/09/19 10:37:22;;;;;;;12.50;3.78;;;20.30;61.60;;;;;;5051040;28;20123;-71
2023/09/19 10:39:49;;;;;;;12.75;3.42;;;20.30;61.10;;;;;;5050964;28;20041;-70
2023/09/19 10:42:20;;;;;;;8.55;2.85;;;20.30;61.40;;;;;;5051061;28;20048;-70
2023/09/19 10:44:49;;;;;;;12.85;3.88;;;20.40;61.60;;;;;;5060284;28;20040;-70
2023/09/19 10:47:19;;;;;;;8.25;3.13;;;20.40;61.00;;;;;;5063049;28;20028;-70
2023/09/19 10:49:48;;;;;;;10.30;3.25;;;20.40;61.50;;;;;;5060299;28;20449;-70
2023/09/19 10:52:22;;;;;;;11.68;3.25;;;20.40;60.50;;;;;;5060683;28;20043;-70
2023/09/19 10:54:51;;;;;;;13.02;3.45;;;20.40;60.20;;;;;;5043323;28;20040;-70
2023/09/19 10:57:24;;;;;;;9.38;2.60;;;20.40;60.50;;;;;;5064022;28;20534;-69
2023/09/19 11:00:23;;;;;;;8.65;3.22;;;20.40;60.60;;;;;;5047767;28;20102;-70
2023/09/19 11:03:11;;;;;;;12.10;3.50;;;20.40;60.20;;;;;;5067054;28;20049;-70
2023/09/19 11:05:41;;;;;;;12.30;2.85;;;20.40;60.70;;;;;;5063921;28;20040;-71
2023/09/19 11:08:12;;;;;;;9.75;2.67;;;20.40;60.40;;;;;;5066331;28;20043;-71
2023/09/19 11:10:51;;;;;;;12.35;3.38;;;20.40;60.20;;;;;;5065247;28;20032;-70
2023/09/19 11:13:34;;;;;;;7.80;2.63;;;20.30;60.20;;;;;;5063913;28;20056;-71
2023/09/19 11:16:00;;;;;;;9.00;2.75;;;20.30;60.80;;;;;;5066114;28;20048;-71
2023/09/19 11:18:41;;;;;;;10.05;3.15;;;20.20;61.20;;;;;;5067877;28;20102;-70
2023/09/19 11:21:33;;;;;;;11.98;2.92;;;20.20;60.90;;;;;;5067432;28;20036;-70
2023/09/19 11:24:26;;;;;;;11.57;2.85;;;20.20;61.30;;;;;;5066771;28;20052;-70
2023/09/19 11:27:08;;;;;;;8.00;2.45;;;20.20;60.30;;;;;;5066828;28;20045;-70
2023/09/19 11:29:35;;;;;;;10.90;2.47;;;20.20;60.90;;;;;;5064243;28;20044;-71
2023/09/19 11:32:01;;;;;;;10.70;2.97;;;20.20;61.20;;;;;;5066003;28;20067;-70
2023/09/19 11:34:50;;;;;;;11.50;2.58;;;20.10;61.60;;;;;;5063320;28;20500;-70
2023/09/19 11:37:15;;;;;;;11.48;3.17;;;20.20;61.40;;;;;;5063753;28;20068;-70
2023/09/19 11:40:16;;;;;;;9.30;2.47;;;20.20;61.50;;;;;;5064750;28;20079;-70
2023/09/19 11:42:53;;;;;;;10.23;2.50;;;20.10;60.80;;;;;;5062514;28;20519;-70
2023/09/19 11:45:49;;;;;;;18.60;3.88;;;20.10;60.90;;;;;;5062966;28;20032;-70
2023/09/19 11:48:18;;;;;;;12.25;2.53;;;20.10;61.50;;;;;;5063926;28;20039;-69
2023/09/19 11:50:45;;;;;;;14.77;3.88;;;20.00;61.70;;;;;;5046661;28;20048;-69
2023/09/19 11:53:12;;;;;;;9.48;2.42;;;20.00;61.00;;;;;;5058820;28;20080;-69
2023/09/19 11:55:40;;;;;;;8.40;2.72;;;20.00;61.10;;;;;;5063967;28;20043;-69
2023/09/19 11:58:09;;;;;;;9.30;2.53;;;20.00;61.20;;;;;;5040996;28;20519;-68
2023/09/19 12:00:39;;;;;;;8.40;2.15;;;19.90;61.50;;;;;;5060854;28;20043;-69
2023/09/19 12:03:09;;;;;;;8.70;2.42;;;19.90;61.50;;;;;;5048472;28;20044;-69
2023/09/19 12:05:37;;;;;;;8.13;2.15;;;19.90;61.50;;;;;;5065499;28;20045;-69
2023/09/19 12:08:08;;;;;;;8.27;2.65;;;19.80;61.50;;;;;;5060626;28;20074;-68
2023/09/19 12:10:51;;;;;;;11.07;2.97;;;19.80;61.70;;;;;;5057744;28;20044;-69
2023/09/19 12:13:18;;;;;;;8.90;2.63;;;19.80;61.50;;;;;;5067350;28;20494;-69
2023/09/19 12:15:45;;;;;;;9.75;2.50;;;19.80;61.70;;;;;;5065775;28;20044;-69
2023/09/19 12:18:27;;;;;;;9.23;2.30;;;19.80;61.80;;;;;;5066460;28;20060;-69
2023/09/19 12:20:54;;;;;;;10.35;2.90;;;19.80;61.70;;;;;;5067219;28;20047;-68
2023/09/19 12:23:20;;;;;;;7.15;2.08;;;19.70;61.50;;;;;;5067455;28;20067;-69
2023/09/19 12:25:47;;;;;;;7.03;2.03;;;19.70;61.90;;;;;;5050724;28;20489;-69
2023/09/19 12:28:16;;;;;;;9.13;2.28;;;19.70;62.30;;;;;;5062058;28;20602;-69
2023/09/19 12:30:42;;;;;;;8.05;2.28;;;19.70;62.60;;;;;;5060969;28;20044;-68
2023/09/19 12:33:25;;;;;;;6.50;2.25;;;19.70;62.20;;;;;;5057669;28;20059;-69
2023/09/19 12:35:53;;;;;;;8.85;2.28;;;19.70;62.10;;;;;;5067352;28;20052;-69
2023/09/19 12:38:28;;;;;;;9.25;2.17;;;19.70;62.20;;;;;;5034320;28;20088;-69
2023/09/19 12:40:56;;;;;;;9.65;2.15;;;19.70;62.20;;;;;;5053428;28;20132;-68
2023/09/19 12:43:23;;;;;;;9.85;2.50;;;19.70;61.90;;;;;;5062072;28;20044;-69
2023/09/19 12:45:49;;;;;;;8.77;2.42;;;19.70;62.00;;;;;;5048267;28;20057;-69
2023/09/19 12:48:21;;;;;;;9.52;2.83;;;19.70;62.20;;;;;;5045384;28;20144;-69
2023/09/19 12:51:25;;;;;;;6.15;1.85;;;19.70;61.80;;;;;;5056348;28;20041;-69
2023/09/19 12:53:57;;;;;;;9.02;2.53;;;19.70;62.40;;;;;;4985221;28;20050;-69
2023/09/19 12:56:24;;;;;;;9.02;2.38;;;19.60;62.50;;;;;;5054371;28;20534;-69
2023/09/19 12:58:58;;;;;;;8.30;1.77;;;19.60;62.50;;;;;;5055269;28;20102;-69
2023/09/19 13:01:29;;;;;;;6.40;1.80;;;19.60;62.50;;;;;;5017328;28;20044;-69